Time;durP1;ratioP1;P1;durP2;ratioP2;P2;SDS_P1;SDS_P2;PMS_P1;PMS_P2;Temp;Humidity;BMP_temperature;BMP_pressure;BME280_temperature;BME280_humidity;BME280_pressure;Samples;Min_cycle;Max_cycle;Signal;HPM_P1;HPM_P2
2021/11/13 00:00:22;;;;;;;13.35;9.65;;;13.20;77.80;;;;;;5051790;28;20107;-72
2021/11/13 00:02:48;;;;;;;13.70;9.50;;;13.20;77.80;;;;;;5052666;28;20104;-72
2021/11/13 00:05:14;;;;;;;17.45;9.55;;;13.20;77.70;;;;;;5051481;28;20017;-72
2021/11/13 00:07:40;;;;;;;18.92;10.00;;;13.20;77.80;;;;;;5052897;28;20027;-72
2021/11/13 00:10:08;;;;;;;13.18;9.90;;;13.20;77.90;;;;;;5052934;28;20025;-71
2021/11/13 00:12:34;;;;;;;14.15;8.88;;;13.20;77.60;;;;;;5053035;28;20028;-71
2021/11/13 00:15:01;;;;;;;13.98;10.02;;;13.20;77.60;;;;;;5052752;28;20032;-71
2021/11/13 00:17:27;;;;;;;14.82;10.15;;;13.20;77.50;;;;;;5052977;28;20025;-71
2021/11/13 00:19:53;;;;;;;13.63;10.32;;;13.20;77.40;;;;;;5052475;28;20052;-72
2021/11/13 00:22:18;;;;;;;15.80;9.15;;;13.20;77.60;;;;;;5052804;28;20025;-72
2021/11/13 00:24:44;;;;;;;16.48;10.00;;;13.20;77.50;;;;;;5052740;28;20028;-72
2021/11/13 00:27:10;;;;;;;15.55;10.88;;;13.20;77.10;;;;;;5052857;28;20024;-71
2021/11/13 00:29:36;;;;;;;14.50;10.05;;;13.10;76.90;;;;;;5052315;28;20029;-71
2021/11/13 00:32:02;;;;;;;16.23;9.63;;;13.20;76.90;;;;;;5052566;28;20473;-71
2021/11/13 00:34:28;;;;;;;14.15;10.00;;;13.20;76.90;;;;;;5052647;28;21213;-71
2021/11/13 00:36:54;;;;;;;14.88;9.63;;;13.20;77.00;;;;;;5052729;28;20021;-71
2021/11/13 00:39:20;;;;;;;14.00;9.45;;;13.20;76.90;;;;;;5052483;28;20032;-72
2021/11/13 00:41:46;;;;;;;14.02;10.30;;;13.20;77.10;;;;;;5052590;28;20546;-71
2021/11/13 00:44:12;;;;;;;17.23;9.82;;;13.10;77.00;;;;;;5052079;28;20018;-72
2021/11/13 00:46:39;;;;;;;20.60;10.98;;;13.10;76.80;;;;;;5052334;28;20017;-72
2021/11/13 00:49:05;;;;;;;16.30;10.80;;;13.20;76.90;;;;;;5052667;28;20373;-71
2021/11/13 00:51:32;;;;;;;14.95;10.38;;;13.20;77.00;;;;;;5052441;28;20021;-71
2021/11/13 00:54:00;;;;;;;16.10;10.98;;;13.10;77.10;;;;;;5052441;28;20029;-72
2021/11/13 00:56:26;;;;;;;16.35;12.00;;;13.10;76.90;;;;;;5052291;28;20151;-72
2021/11/13 00:58:51;;;;;;;15.52;10.38;;;13.20;76.50;;;;;;5051226;28;20104;-71
2021/11/13 01:01:17;;;;;;;12.75;10.32;;;13.20;76.40;;;;;;5052408;28;20029;-71
2021/11/13 01:03:43;;;;;;;19.85;10.90;;;13.10;76.50;;;;;;5054105;28;20028;-72
2021/11/13 01:06:09;;;;;;;12.77;10.40;;;13.10;76.70;;;;;;5056171;28;20025;-71
2021/11/13 01:08:35;;;;;;;14.45;10.15;;;13.10;76.70;;;;;;5056205;28;20012;-71
2021/11/13 01:11:01;;;;;;;15.48;10.63;;;13.10;76.60;;;;;;5056331;28;20032;-72
2021/11/13 01:13:26;;;;;;;16.02;10.70;;;13.10;76.40;;;;;;5055986;28;20679;-72
2021/11/13 01:15:53;;;;;;;17.10;10.68;;;13.10;76.30;;;;;;5055891;28;20139;-72
2021/11/13 01:18:19;;;;;;;12.48;10.18;;;13.10;76.40;;;;;;5054364;28;20105;-71
2021/11/13 01:20:45;;;;;;;19.38;10.23;;;13.10;76.20;;;;;;5054696;28;20037;-72
2021/11/13 01:23:11;;;;;;;18.50;10.70;;;13.10;76.00;;;;;;5054656;28;20031;-72
2021/11/13 01:25:36;;;;;;;13.60;10.63;;;13.10;76.00;;;;;;5056050;28;20052;-72
2021/11/13 01:28:02;;;;;;;16.00;10.52;;;13.10;75.90;;;;;;5055948;28;20465;-72
2021/11/13 01:30:28;;;;;;;12.82;9.88;;;13.00;75.70;;;;;;5055995;28;20052;-72
2021/11/13 01:32:54;;;;;;;14.05;10.25;;;13.10;76.00;;;;;;5056045;28;20381;-72
2021/11/13 01:35:22;;;;;;;14.65;10.32;;;13.10;76.40;;;;;;5055590;28;20036;-72
2021/11/13 01:37:48;;;;;;;16.52;10.05;;;13.10;76.20;;;;;;5055816;28;20025;-71
2021/11/13 01:40:16;;;;;;;11.73;9.80;;;13.00;76.20;;;;;;5055412;28;20016;-72
2021/11/13 01:42:43;;;;;;;16.70;11.25;;;13.10;76.50;;;;;;5055716;28;20076;-71
2021/11/13 01:45:10;;;;;;;13.82;10.05;;;13.10;76.50;;;;;;5055902;28;20068;-71
2021/11/13 01:47:38;;;;;;;18.77;10.40;;;13.00;76.30;;;;;;5055815;28;20401;-71
2021/11/13 01:50:20;;;;;;;18.08;11.35;;;13.00;75.90;;;;;;5055468;28;20519;-71
2021/11/13 01:52:47;;;;;;;15.55;10.02;;;13.10;76.00;;;;;;5055758;28;20131;-71
2021/11/13 01:55:15;;;;;;;16.65;10.32;;;13.00;75.90;;;;;;5055502;28;20120;-72
2021/11/13 01:57:48;;;;;;;14.30;11.02;;;13.00;76.00;;;;;;5054505;28;20025;-72
2021/11/13 02:00:26;;;;;;;14.30;10.05;;;13.10;76.30;;;;;;5050986;28;20032;-71
2021/11/13 02:02:52;;;;;;;16.40;10.40;;;13.10;76.30;;;;;;5052569;28;20086;-71
2021/11/13 02:05:18;;;;;;;14.68;10.68;;;13.10;76.40;;;;;;5053848;28;20060;-71
2021/11/13 02:07:43;;;;;;;16.60;10.38;;;13.00;76.40;;;;;;5053877;28;20083;-71
2021/11/13 02:10:11;;;;;;;15.07;10.32;;;13.10;76.50;;;;;;5053665;28;20115;-72
2021/11/13 02:12:37;;;;;;;13.63;10.45;;;13.10;76.50;;;;;;5054941;28;20104;-71
2021/11/13 02:15:04;;;;;;;14.77;9.38;;;13.10;76.40;;;;;;5052735;28;20043;-70
2021/11/13 02:17:30;;;;;;;19.63;10.57;;;13.10;76.40;;;;;;5054891;28;20021;-71
2021/11/13 02:19:56;;;;;;;13.82;9.82;;;13.00;76.40;;;;;;5053647;28;20057;-71
2021/11/13 02:22:23;;;;;;;15.57;11.27;;;13.00;76.50;;;;;;5054685;28;20025;-72
2021/11/13 02:24:49;;;;;;;17.88;10.57;;;13.00;76.70;;;;;;5054848;28;20029;-71
2021/11/13 02:27:14;;;;;;;13.48;10.20;;;13.10;77.10;;;;;;5054856;28;20028;-71
2021/11/13 02:29:40;;;;;;;14.98;10.27;;;13.00;77.50;;;;;;5054430;28;20389;-71
2021/11/13 02:32:06;;;;;;;14.30;10.18;;;13.00;78.20;;;;;;5053486;28;20108;-71
2021/11/13 02:34:32;;;;;;;14.85;9.90;;;13.10;78.50;;;;;;5054677;28;20373;-71
2021/11/13 02:36:58;;;;;;;14.93;11.15;;;13.00;78.50;;;;;;5054636;28;20027;-71
2021/11/13 02:39:23;;;;;;;20.70;13.00;;;13.00;78.60;;;;;;5054615;28;20074;-71
2021/11/13 02:41:50;;;;;;;17.73;13.10;;;13.00;78.70;;;;;;5054351;28;20100;-71
2021/11/13 02:44:19;;;;;;;23.05;14.55;;;13.00;78.80;;;;;;5053120;28;20033;-72
2021/11/13 02:46:46;;;;;;;19.80;13.18;;;13.00;79.00;;;;;;5054558;28;20029;-71
2021/11/13 02:49:14;;;;;;;19.90;13.15;;;13.00;79.10;;;;;;5053042;28;20036;-71
2021/11/13 02:51:40;;;;;;;22.83;13.30;;;13.00;79.20;;;;;;5053729;28;20025;-71
2021/11/13 02:54:05;;;;;;;19.20;13.75;;;13.00;79.40;;;;;;5052816;28;20045;-71
2021/11/13 02:56:31;;;;;;;18.58;13.52;;;13.00;79.60;;;;;;5053998;28;20032;-71
2021/11/13 02:58:57;;;;;;;19.92;12.60;;;13.00;79.80;;;;;;5053665;28;20029;-72
2021/11/13 03:01:25;;;;;;;24.02;13.43;;;13.00;80.10;;;;;;5054111;28;20052;-71
2021/11/13 03:03:53;;;;;;;19.45;13.40;;;13.00;80.30;;;;;;5054051;28;20029;-72
2021/11/13 03:06:20;;;;;;;14.95;11.82;;;13.00;80.40;;;;;;5052894;28;20508;-71
2021/11/13 03:08:49;;;;;;;18.20;12.38;;;13.00;80.20;;;;;;5054281;28;20027;-71
2021/11/13 03:11:16;;;;;;;19.27;11.23;;;13.00;80.20;;;;;;5053934;28;20032;-71
2021/11/13 03:13:46;;;;;;;15.70;10.93;;;13.00;79.90;;;;;;5054099;28;20029;-71
2021/11/13 03:16:13;;;;;;;13.95;10.18;;;13.00;79.80;;;;;;5054192;28;20397;-71
2021/11/13 03:18:39;;;;;;;14.80;10.15;;;13.00;79.80;;;;;;5053758;28;20053;-71
2021/11/13 03:21:07;;;;;;;13.98;10.27;;;13.00;79.80;;;;;;5053739;28;20171;-71
2021/11/13 03:23:42;;;;;;;14.40;10.80;;;13.00;79.80;;;;;;5053886;28;20024;-71
2021/11/13 03:26:20;;;;;;;13.60;9.65;;;13.00;79.80;;;;;;5053743;28;20032;-71
2021/11/13 03:28:50;;;;;;;13.50;9.82;;;13.00;79.70;;;;;;5053083;28;20040;-72
2021/11/13 03:31:16;;;;;;;14.35;10.52;;;13.00;79.50;;;;;;5053540;28;20032;-72
2021/11/13 03:33:43;;;;;;;14.18;10.52;;;13.00;79.30;;;;;;5053552;28;20473;-71
2021/11/13 03:36:09;;;;;;;18.27;10.25;;;13.00;79.10;;;;;;5053294;28;20139;-71
2021/11/13 03:38:37;;;;;;;14.77;10.23;;;13.00;78.70;;;;;;5053400;28;20386;-71
2021/11/13 03:41:03;;;;;;;19.27;11.25;;;13.00;78.70;;;;;;5053249;28;20029;-71
2021/11/13 03:43:29;;;;;;;15.73;11.32;;;13.00;78.70;;;;;;5053398;28;20029;-71
2021/11/13 03:45:54;;;;;;;18.23;11.18;;;13.00;78.80;;;;;;5053371;28;20032;-71
2021/11/13 03:48:21;;;;;;;16.80;10.82;;;13.00;79.00;;;;;;5053433;28;20025;-71
2021/11/13 03:50:47;;;;;;;14.90;11.23;;;13.00;79.20;;;;;;5053216;28;20427;-71
2021/11/13 03:53:13;;;;;;;15.38;10.98;;;13.00;79.20;;;;;;5053226;28;20047;-72
2021/11/13 03:55:39;;;;;;;16.88;10.98;;;13.00;79.10;;;;;;5053383;28;20029;-71
2021/11/13 03:58:05;;;;;;;14.77;10.32;;;13.00;79.20;;;;;;5053037;28;20043;-72
2021/11/13 04:00:31;;;;;;;17.02;10.80;;;13.00;79.30;;;;;;5053022;28;20504;-71
2021/11/13 04:02:57;;;;;;;17.08;11.73;;;13.00;78.90;;;;;;5053049;28;20541;-72
2021/11/13 04:05:23;;;;;;;17.40;11.48;;;13.00;78.90;;;;;;5051819;28;20029;-71
2021/11/13 04:07:50;;;;;;;15.18;10.98;;;13.00;79.00;;;;;;5053066;28;20025;-72
2021/11/13 04:10:17;;;;;;;15.20;9.88;;;13.00;79.20;;;;;;5053038;28;20103;-71
2021/11/13 04:12:43;;;;;;;16.65;10.80;;;13.00;79.20;;;;;;5053142;28;20373;-72
2021/11/13 04:15:11;;;;;;;14.85;10.43;;;13.00;78.90;;;;;;5052830;28;20453;-72
2021/11/13 04:17:37;;;;;;;14.88;9.82;;;12.90;78.80;;;;;;5052861;28;20473;-73
2021/11/13 04:20:05;;;;;;;12.93;10.07;;;13.00;79.00;;;;;;5052588;28;20048;-72
2021/11/13 04:22:30;;;;;;;13.90;10.57;;;12.90;79.20;;;;;;5052780;28;20028;-71
2021/11/13 04:24:56;;;;;;;17.02;10.88;;;13.00;79.40;;;;;;5051779;28;20037;-72
2021/11/13 04:27:22;;;;;;;14.55;10.70;;;12.90;79.30;;;;;;5052976;28;20099;-72
2021/11/13 04:29:48;;;;;;;15.00;10.40;;;12.90;79.10;;;;;;5052444;28;20389;-72
2021/11/13 04:32:15;;;;;;;13.18;10.07;;;12.90;78.90;;;;;;5052876;28;20453;-71
2021/11/13 04:37:22;;;;;;;14.30;9.82;;;12.90;78.80;;;;;;5052558;28;20049;-71
2021/11/13 04:39:49;;;;;;;16.15;10.50;;;12.90;79.00;;;;;;5052251;28;20044;-71
2021/11/13 04:42:16;;;;;;;16.33;11.05;;;12.90;78.90;;;;;;5052325;28;20719;-71
2021/11/13 04:44:43;;;;;;;15.38;10.18;;;12.90;78.90;;;;;;5052330;28;20025;-72
2021/11/13 04:47:09;;;;;;;14.88;10.52;;;12.90;78.80;;;;;;5052009;28;20025;-72
2021/11/13 04:49:35;;;;;;;12.52;9.73;;;12.90;78.80;;;;;;5051195;28;20075;-71
2021/11/13 04:52:03;;;;;;;18.70;11.20;;;12.90;78.80;;;;;;5052398;28;20416;-71
2021/11/13 04:54:29;;;;;;;14.30;11.10;;;12.90;78.80;;;;;;5052160;28;20461;-71
2021/11/13 04:56:56;;;;;;;14.98;10.43;;;12.90;78.70;;;;;;5052297;28;20032;-71
2021/11/13 04:59:22;;;;;;;17.45;10.98;;;12.90;78.80;;;;;;5052264;28;20033;-73
2021/11/13 05:01:48;;;;;;;15.85;10.93;;;12.90;79.00;;;;;;5052495;28;20029;-72
2021/11/13 05:04:14;;;;;;;15.38;10.70;;;12.90;79.20;;;;;;5052621;28;20036;-71
2021/11/13 05:06:39;;;;;;;14.85;9.93;;;12.90;79.20;;;;;;5052539;28;20108;-72
2021/11/13 05:09:05;;;;;;;13.75;10.30;;;12.90;79.10;;;;;;5052175;28;20059;-71
2021/11/13 05:11:31;;;;;;;15.75;10.63;;;12.90;79.10;;;;;;5052183;28;20154;-72
2021/11/13 05:13:56;;;;;;;14.70;10.13;;;12.90;79.10;;;;;;5052187;28;20024;-72
2021/11/13 05:16:22;;;;;;;17.98;10.48;;;12.90;79.00;;;;;;5052254;28;20036;-71
2021/11/13 05:18:48;;;;;;;18.27;10.38;;;12.90;79.00;;;;;;5051989;28;20588;-72
2021/11/13 05:21:14;;;;;;;13.85;10.43;;;12.90;79.10;;;;;;5052263;28;20032;-71
2021/11/13 05:23:41;;;;;;;18.35;11.90;;;12.90;79.40;;;;;;5052370;28;20378;-72
2021/11/13 05:26:07;;;;;;;17.92;12.45;;;12.90;79.70;;;;;;5052372;28;20029;-72
2021/11/13 05:28:32;;;;;;;18.45;12.93;;;12.90;79.70;;;;;;5052283;28;20017;-73
2021/11/13 05:30:58;;;;;;;24.42;12.60;;;12.90;79.60;;;;;;5052278;28;20025;-72
2021/11/13 05:33:25;;;;;;;19.48;11.88;;;12.90;79.40;;;;;;5052117;28;20024;-71
2021/11/13 05:35:51;;;;;;;18.90;11.68;;;12.90;79.30;;;;;;5052262;28;20033;-71
2021/11/13 05:38:18;;;;;;;22.85;12.05;;;12.90;79.40;;;;;;5052096;28;20043;-71
2021/11/13 05:40:44;;;;;;;18.92;12.68;;;12.90;79.50;;;;;;5051772;28;20525;-71
2021/11/13 05:43:10;;;;;;;21.73;12.68;;;12.90;79.60;;;;;;5051686;28;20032;-70
2021/11/13 05:45:36;;;;;;;16.95;13.10;;;12.90;79.60;;;;;;5051950;28;20132;-71
2021/11/13 05:48:02;;;;;;;19.55;14.45;;;12.90;79.60;;;;;;5052035;28;20075;-71
2021/11/13 05:50:28;;;;;;;20.65;14.25;;;12.90;79.50;;;;;;5053394;28;20025;-71
2021/11/13 05:52:55;;;;;;;25.45;14.18;;;12.90;79.50;;;;;;5055383;28;20029;-72
2021/11/13 05:55:24;;;;;;;24.48;15.38;;;12.80;79.70;;;;;;5055339;28;20037;-71
2021/11/13 05:57:50;;;;;;;21.77;15.73;;;12.90;79.80;;;;;;5055339;28;20025;-71
2021/11/13 06:00:18;;;;;;;24.50;16.33;;;12.80;79.80;;;;;;5055585;28;20448;-71
2021/11/13 06:02:44;;;;;;;24.98;15.88;;;12.80;80.00;;;;;;5055215;28;20017;-71
2021/11/13 06:05:10;;;;;;;22.52;15.98;;;12.90;79.90;;;;;;5055279;28;20100;-71
2021/11/13 06:07:37;;;;;;;22.73;16.15;;;12.80;79.60;;;;;;5055174;28;20028;-72
2021/11/13 06:10:04;;;;;;;26.58;15.75;;;12.90;79.90;;;;;;5055079;28;20048;-71
2021/11/13 06:12:30;;;;;;;22.33;16.40;;;12.90;80.30;;;;;;5055013;28;20025;-71
2021/11/13 06:14:56;;;;;;;24.50;17.50;;;12.90;80.60;;;;;;5054940;28;20025;-71
2021/11/13 06:17:22;;;;;;;25.55;18.25;;;12.90;80.80;;;;;;5053792;28;20052;-72
2021/11/13 06:19:48;;;;;;;26.83;17.63;;;12.80;80.70;;;;;;5054939;28;20059;-71
2021/11/13 06:22:14;;;;;;;23.05;16.85;;;12.80;80.80;;;;;;5055296;28;20485;-71
2021/11/13 06:24:39;;;;;;;27.30;17.23;;;12.90;80.80;;;;;;5054849;28;20029;-72
2021/11/13 06:27:06;;;;;;;27.45;17.58;;;12.90;80.90;;;;;;5054702;28;20405;-73
2021/11/13 06:29:31;;;;;;;30.80;17.83;;;12.90;81.00;;;;;;5054964;28;20021;-71
2021/11/13 06:31:58;;;;;;;27.33;15.88;;;12.90;81.00;;;;;;5055013;28;20029;-72
2021/11/13 06:34:24;;;;;;;24.13;17.23;;;12.90;81.00;;;;;;5054965;28;20111;-72
2021/11/13 06:36:50;;;;;;;25.40;18.17;;;12.90;81.10;;;;;;5056279;28;20078;-71
2021/11/13 06:39:16;;;;;;;28.13;18.33;;;12.90;81.20;;;;;;5054500;28;20025;-72
2021/11/13 06:41:42;;;;;;;23.30;17.63;;;12.90;81.30;;;;;;5054243;28;20040;-72
2021/11/13 06:44:07;;;;;;;23.58;17.15;;;12.90;81.30;;;;;;5054589;28;20025;-71
2021/11/13 06:46:33;;;;;;;24.75;17.73;;;12.90;81.40;;;;;;5054390;28;20100;-72
2021/11/13 06:48:59;;;;;;;22.08;17.40;;;12.90;81.50;;;;;;5054508;28;20355;-71
2021/11/13 06:51:24;;;;;;;29.65;16.75;;;12.90;81.50;;;;;;5054278;28;20024;-72
2021/11/13 06:53:51;;;;;;;20.60;14.57;;;12.90;81.50;;;;;;5054337;28;20362;-71
2021/11/13 06:56:16;;;;;;;22.58;14.80;;;12.90;81.40;;;;;;5053919;28;20064;-72
2021/11/13 06:58:42;;;;;;;23.35;14.65;;;13.00;81.80;;;;;;5053938;28;20358;-72
2021/11/13 07:01:08;;;;;;;20.65;15.13;;;13.00;82.10;;;;;;5053877;28;20052;-72
2021/11/13 07:03:33;;;;;;;20.63;14.45;;;13.00;82.30;;;;;;5054288;28;20032;-72
2021/11/13 07:05:59;;;;;;;21.35;13.88;;;13.00;82.40;;;;;;5053954;28;20025;-72
2021/11/13 07:08:25;;;;;;;22.63;15.07;;;13.00;82.60;;;;;;5052319;28;20059;-71
2021/11/13 07:10:53;;;;;;;24.85;14.30;;;13.00;82.90;;;;;;5054074;28;20025;-72
2021/11/13 07:13:21;;;;;;;23.17;14.95;;;13.00;83.10;;;;;;5049874;28;20466;-72
2021/11/13 07:15:47;;;;;;;19.30;14.45;;;13.00;83.10;;;;;;5051528;28;20107;-71
2021/11/13 07:18:13;;;;;;;22.33;14.70;;;13.00;83.20;;;;;;5047337;28;20044;-71
2021/11/13 07:20:39;;;;;;;21.63;15.10;;;13.00;83.30;;;;;;5051280;28;20029;-74
2021/11/13 07:23:05;;;;;;;19.77;14.20;;;13.00;83.50;;;;;;5052634;28;20465;-75
2021/11/13 07:25:32;;;;;;;22.92;16.30;;;13.00;83.50;;;;;;5053513;28;20112;-74
2021/11/13 07:28:03;;;;;;;19.90;15.93;;;13.00;83.60;;;;;;5053374;28;20061;-71
2021/11/13 07:30:38;;;;;;;30.83;17.35;;;13.10;83.70;;;;;;5053611;28;20500;-70
2021/11/13 07:33:04;;;;;;;26.98;16.80;;;13.10;83.70;;;;;;5053323;28;20025;-72
2021/11/13 07:35:30;;;;;;;28.33;17.90;;;13.00;83.50;;;;;;5053078;28;20136;-71
2021/11/13 07:37:56;;;;;;;29.48;16.80;;;13.10;83.50;;;;;;5053337;28;20116;-72
2021/11/13 07:40:22;;;;;;;21.30;15.77;;;13.10;83.40;;;;;;5053367;28;20029;-72
2021/11/13 07:42:49;;;;;;;21.58;16.10;;;13.00;83.30;;;;;;5052316;28;20512;-72
2021/11/13 07:45:15;;;;;;;25.63;16.73;;;13.10;83.50;;;;;;5053440;28;20025;-72
2021/11/13 07:47:41;;;;;;;29.20;15.75;;;13.10;83.60;;;;;;5053142;28;20029;-72
2021/11/13 07:50:12;;;;;;;25.90;17.45;;;13.10;83.70;;;;;;5050599;28;20025;-72
2021/11/13 07:52:38;;;;;;;22.58;15.75;;;13.10;83.90;;;;;;5049886;28;20021;-72
2021/11/13 07:55:04;;;;;;;20.75;15.13;;;13.10;83.90;;;;;;5049938;28;20017;-72
2021/11/13 07:57:30;;;;;;;23.05;15.70;;;13.10;84.00;;;;;;5051875;28;20096;-72
2021/11/13 07:59:56;;;;;;;24.05;16.50;;;13.10;84.00;;;;;;5052255;28;20427;-72
2021/11/13 08:02:21;;;;;;;26.05;18.30;;;13.10;84.00;;;;;;5052150;28;20028;-72
2021/11/13 08:04:47;;;;;;;30.63;18.73;;;13.10;83.90;;;;;;5052399;28;20158;-72
2021/11/13 08:07:13;;;;;;;26.40;18.05;;;13.10;83.90;;;;;;5051404;28;20492;-71
2021/11/13 08:09:39;;;;;;;31.33;19.00;;;13.10;84.00;;;;;;5051108;28;20021;-72
2021/11/13 08:12:04;;;;;;;29.33;19.17;;;13.10;84.00;;;;;;5052752;28;20028;-72
2021/11/13 08:14:30;;;;;;;31.10;19.73;;;13.10;84.10;;;;;;5052345;28;20107;-72
2021/11/13 08:16:56;;;;;;;24.40;18.80;;;13.10;84.20;;;;;;5052838;28;20061;-72
2021/11/13 08:19:21;;;;;;;23.33;17.33;;;13.20;84.30;;;;;;5052841;28;20102;-72
2021/11/13 08:21:47;;;;;;;30.90;18.83;;;13.10;84.20;;;;;;5053164;28;20028;-72
2021/11/13 08:24:15;;;;;;;29.73;19.50;;;13.20;84.40;;;;;;5052309;28;20029;-72
2021/11/13 08:26:40;;;;;;;33.55;19.92;;;13.20;84.60;;;;;;5052359;28;20021;-72
2021/11/13 08:29:06;;;;;;;31.77;22.25;;;13.10;84.60;;;;;;5052293;28;20037;-72
2021/11/13 08:31:32;;;;;;;37.42;21.33;;;13.20;84.50;;;;;;5052765;28;20028;-72
2021/11/13 08:33:57;;;;;;;69.90;22.90;;;13.10;84.20;;;;;;5051893;28;20037;-73
2021/11/13 08:36:23;;;;;;;114.97;26.42;;;13.20;84.10;;;;;;5052272;28;20232;-72
2021/11/13 08:38:49;;;;;;;156.30;31.33;;;13.20;83.90;;;;;;5052554;28;20071;-72
2021/11/13 08:41:15;;;;;;;57.78;23.08;;;13.20;83.70;;;;;;5052893;28;20040;-72
2021/11/13 08:43:41;;;;;;;58.05;21.58;;;13.20;83.60;;;;;;5052760;28;20477;-72
2021/11/13 08:46:06;;;;;;;80.80;23.13;;;13.20;83.60;;;;;;5052344;28;20107;-72
2021/11/13 08:48:32;;;;;;;38.47;21.08;;;13.20;84.10;;;;;;5052837;28;20036;-73
2021/11/13 08:50:58;;;;;;;30.50;20.17;;;13.20;84.00;;;;;;5052581;28;20025;-72
2021/11/13 08:53:23;;;;;;;42.60;19.85;;;13.20;84.00;;;;;;5052504;28;20068;-72
2021/11/13 08:55:50;;;;;;;27.10;19.35;;;13.20;84.10;;;;;;5052628;28;20068;-72
2021/11/13 08:58:16;;;;;;;36.00;21.00;;;13.20;83.90;;;;;;5052350;28;20029;-72
2021/11/13 09:01:05;;;;;;;36.55;21.17;;;13.20;84.10;;;;;;5052583;28;20037;-72
2021/11/13 09:03:38;;;;;;;35.65;19.70;;;13.30;84.00;;;;;;5052481;28;20462;-72
2021/11/13 09:06:10;;;;;;;35.30;20.67;;;13.20;82.90;;;;;;5051629;28;20469;-72
2021/11/13 09:08:40;;;;;;;32.15;20.38;;;13.20;83.10;;;;;;5050331;28;20048;-72
2021/11/13 09:11:09;;;;;;;26.02;19.48;;;13.20;83.20;;;;;;5051131;28;20036;-72
2021/11/13 09:13:35;;;;;;;28.80;19.45;;;13.20;83.30;;;;;;5051431;28;20036;-72
2021/11/13 09:16:05;;;;;;;29.80;19.98;;;13.20;83.30;;;;;;5051992;28;20045;-72
2021/11/13 09:18:31;;;;;;;31.08;20.40;;;13.20;83.50;;;;;;5051400;28;20045;-72
2021/11/13 09:20:57;;;;;;;27.85;20.38;;;13.20;83.60;;;;;;5052456;28;20025;-73
2021/11/13 09:23:23;;;;;;;25.90;19.25;;;13.30;83.70;;;;;;5052207;28;20021;-72
2021/11/13 09:25:49;;;;;;;33.30;20.23;;;13.30;83.90;;;;;;5054365;28;20029;-72
2021/11/13 09:28:15;;;;;;;26.88;20.48;;;13.30;83.90;;;;;;5053985;28;20021;-72
2021/11/13 09:30:42;;;;;;;35.50;21.50;;;13.30;84.00;;;;;;5056024;28;20481;-72
2021/11/13 09:33:09;;;;;;;33.92;21.35;;;13.40;84.20;;;;;;5054154;28;20032;-72
2021/11/13 09:35:36;;;;;;;41.53;22.80;;;13.30;84.30;;;;;;5053934;28;20033;-72
2021/11/13 09:38:03;;;;;;;80.78;24.13;;;13.30;84.10;;;;;;5055344;28;20096;-71
2021/11/13 09:40:31;;;;;;;48.88;23.58;;;13.40;83.80;;;;;;5054937;28;20025;-72
2021/11/13 09:42:59;;;;;;;38.63;24.08;;;13.40;83.50;;;;;;5055341;28;20092;-72
2021/11/13 09:45:27;;;;;;;34.65;23.52;;;13.40;83.10;;;;;;5055201;28;20104;-72
2021/11/13 09:47:55;;;;;;;37.10;24.00;;;13.40;83.10;;;;;;5055638;28;20378;-72
2021/11/13 09:50:24;;;;;;;34.35;24.33;;;13.40;83.20;;;;;;5055950;28;20100;-72
2021/11/13 09:52:50;;;;;;;44.25;24.17;;;13.40;83.30;;;;;;5056060;28;20017;-72
2021/11/13 09:55:18;;;;;;;39.40;25.83;;;13.40;83.70;;;;;;5055594;28;20036;-72
2021/11/13 09:57:45;;;;;;;37.58;24.67;;;13.40;83.70;;;;;;5055758;28;20108;-72
2021/11/13 10:00:14;;;;;;;41.22;24.58;;;13.50;83.40;;;;;;5055958;28;20405;-72
2021/11/13 10:02:40;;;;;;;32.40;24.30;;;13.50;83.30;;;;;;5055865;28;20078;-72
2021/11/13 10:05:06;;;;;;;39.78;26.05;;;13.50;83.20;;;;;;5055931;28;20111;-72
2021/11/13 10:07:35;;;;;;;34.45;25.23;;;13.50;82.90;;;;;;5055877;28;20025;-72
2021/11/13 10:10:01;;;;;;;36.35;25.60;;;13.50;82.70;;;;;;5054953;28;20021;-72
2021/11/13 10:12:41;;;;;;;37.25;26.00;;;13.50;82.60;;;;;;5054549;28;20036;-72
2021/11/13 10:15:25;;;;;;;40.95;27.00;;;13.50;82.50;;;;;;5053780;28;20036;-72
2021/11/13 10:18:10;;;;;;;45.13;30.15;;;13.50;82.80;;;;;;5055254;28;20025;-72
2021/11/13 10:20:39;;;;;;;49.72;30.02;;;13.60;84.20;;;;;;5055447;28;20440;-72
2021/11/13 10:23:06;;;;;;;46.75;28.55;;;13.50;84.70;;;;;;5055248;28;20133;-72
2021/11/13 10:25:31;;;;;;;42.83;29.85;;;13.50;85.00;;;;;;5055511;28;20029;-72
2021/11/13 10:28:15;;;;;;;39.90;26.95;;;13.50;84.90;;;;;;5055272;28;20028;-72
2021/11/13 10:30:43;;;;;;;45.60;29.67;;;13.50;84.40;;;;;;5054429;28;20362;-72
2021/11/13 10:33:09;;;;;;;41.10;28.20;;;13.50;83.60;;;;;;5054408;28;20025;-72
2021/11/13 10:35:49;;;;;;;43.47;28.48;;;13.60;83.50;;;;;;5054206;28;20060;-72
2021/11/13 10:38:18;;;;;;;43.60;30.42;;;13.60;83.20;;;;;;5053770;28;20021;-72
2021/11/13 10:40:56;;;;;;;45.05;29.50;;;13.60;82.80;;;;;;5053746;28;20375;-72
2021/11/13 10:43:44;;;;;;;59.35;34.72;;;13.60;82.70;;;;;;5054784;28;20013;-72
2021/11/13 10:46:15;;;;;;;45.60;33.03;;;13.60;83.90;;;;;;5054429;28;20027;-72
2021/11/13 10:48:50;;;;;;;52.75;35.03;;;13.70;83.70;;;;;;5054046;28;20036;-71
2021/11/13 10:51:19;;;;;;;53.17;35.22;;;13.70;85.20;;;;;;5054655;28;20021;-71
2021/11/13 10:53:47;;;;;;;53.45;34.05;;;13.70;85.30;;;;;;5055038;28;20205;-72
2021/11/13 10:56:19;;;;;;;50.15;34.38;;;13.70;85.00;;;;;;5054409;28;20053;-71
2021/11/13 10:58:53;;;;;;;51.08;34.33;;;13.80;85.10;;;;;;5054688;28;20022;-72
2021/11/13 11:01:29;;;;;;;55.75;34.22;;;13.80;84.40;;;;;;5054541;28;20025;-72
2021/11/13 11:04:00;;;;;;;45.97;32.75;;;13.80;84.10;;;;;;5054558;28;20028;-72
2021/11/13 11:06:37;;;;;;;51.78;33.30;;;13.90;84.80;;;;;;5054384;28;20021;-73
2021/11/13 11:09:34;;;;;;;59.47;33.50;;;13.90;84.20;;;;;;5054074;28;20025;-72
2021/11/13 11:12:07;;;;;;;48.17;31.95;;;13.90;84.30;;;;;;5038265;28;20090;-71
2021/11/13 11:14:33;;;;;;;51.38;34.47;;;14.00;84.10;;;;;;5052699;28;20083;-74
2021/11/13 11:17:06;;;;;;;56.75;34.35;;;13.90;84.80;;;;;;5053833;28;20385;-71
2021/11/13 11:19:34;;;;;;;53.28;35.30;;;13.90;84.20;;;;;;5054053;28;20032;-72
2021/11/13 11:22:14;;;;;;;57.78;36.83;;;14.00;84.00;;;;;;5054150;28;20036;-72
2021/11/13 11:24:42;;;;;;;59.70;37.83;;;14.00;84.20;;;;;;5054062;28;20074;-72
2021/11/13 11:27:23;;;;;;;57.63;37.90;;;14.00;83.70;;;;;;5053539;28;20048;-71
2021/11/13 11:30:05;;;;;;;56.47;37.80;;;14.00;83.40;;;;;;5053673;28;20033;-72
2021/11/13 11:32:35;;;;;;;63.63;38.42;;;14.00;83.30;;;;;;5053829;28;20091;-72
2021/11/13 11:35:06;;;;;;;57.85;38.17;;;14.00;83.50;;;;;;5053734;28;20033;-72
2021/11/13 11:37:35;;;;;;;67.72;40.97;;;14.10;83.60;;;;;;5053704;28;20056;-72
2021/11/13 11:40:10;;;;;;;63.08;39.95;;;14.10;83.70;;;;;;5053652;28;20033;-72
2021/11/13 11:42:36;;;;;;;60.00;39.10;;;14.10;83.60;;;;;;5053529;28;20028;-72
2021/11/13 11:45:05;;;;;;;58.08;37.83;;;14.10;83.30;;;;;;5053629;28;20025;-72
2021/11/13 11:47:33;;;;;;;63.80;39.85;;;14.20;83.20;;;;;;5052891;28;20028;-72
2021/11/13 11:50:03;;;;;;;60.78;39.95;;;14.20;83.10;;;;;;5053359;28;20071;-72
2021/11/13 11:52:29;;;;;;;57.45;39.05;;;14.20;83.20;;;;;;5053393;28;20088;-72
2021/11/13 11:54:56;;;;;;;62.72;40.05;;;14.30;83.00;;;;;;5053448;28;20027;-72
2021/11/13 11:57:29;;;;;;;63.33;38.80;;;14.30;83.20;;;;;;5053342;28;20028;-72
2021/11/13 11:59:58;;;;;;;64.75;39.72;;;14.30;83.10;;;;;;5053294;28;20021;-72
2021/11/13 12:02:24;;;;;;;62.25;42.25;;;14.40;82.80;;;;;;5053275;28;20036;-72
2021/11/13 12:04:50;;;;;;;60.90;40.05;;;14.40;82.70;;;;;;5053158;28;20025;-72
2021/11/13 12:07:31;;;;;;;61.17;40.85;;;14.50;82.50;;;;;;5053186;28;20097;-72
2021/11/13 12:10:20;;;;;;;59.58;39.70;;;14.50;82.90;;;;;;5053132;28;20095;-72
2021/11/13 12:13:12;;;;;;;62.15;40.20;;;14.50;82.60;;;;;;5053095;28;20100;-71
2021/11/13 12:15:48;;;;;;;71.40;40.60;;;14.60;82.50;;;;;;5053183;28;20033;-72
2021/11/13 12:18:21;;;;;;;75.75;42.28;;;14.60;82.70;;;;;;5052885;28;20056;-72
2021/11/13 12:20:52;;;;;;;68.25;40.72;;;14.60;82.50;;;;;;5053055;28;20469;-72
2021/11/13 12:23:26;;;;;;;71.55;40.60;;;14.60;82.30;;;;;;5052999;28;20028;-72
2021/11/13 12:26:19;;;;;;;66.93;41.45;;;14.60;82.20;;;;;;5051852;28;20033;-72
2021/11/13 12:28:45;;;;;;;61.22;40.47;;;14.50;82.20;;;;;;5053073;28;20386;-72
2021/11/13 12:31:26;;;;;;;59.50;39.17;;;14.60;82.10;;;;;;5052819;28;20032;-72
2021/11/13 12:34:02;;;;;;;65.63;41.13;;;14.60;82.20;;;;;;5052950;28;20021;-72